Time;durP1;ratioP1;P1;durP2;ratioP2;P2;SDS_P1;SDS_P2;PMS_P1;PMS_P2;Temp;Humidity;BMP_temperature;BMP_pressure;BME280_temperature;BME280_humidity;BME280_pressure;Samples;Min_cycle;Max_cycle;Signal;HPM_P1;HPM_P2
2022/11/06 00:01:08;;;;;;;7.97;3.80;;;10.60;82.60;;;;;;4883871;29;20073;-77
2022/11/06 00:03:35;;;;;;;6.90;3.60;;;10.60;82.70;;;;;;4881086;29;20557;-77
2022/11/06 00:08:53;;;;;;;5.00;3.10;;;10.60;83.50;;;;;;4899779;29;20483;-77
2022/11/06 00:11:20;;;;;;;7.88;3.80;;;10.50;82.80;;;;;;4882645;29;20033;-77
2022/11/06 00:13:48;;;;;;;6.20;3.30;;;10.50;82.90;;;;;;4882771;29;20037;-77
2022/11/06 00:16:13;;;;;;;7.13;3.33;;;10.50;82.90;;;;;;4882997;29;20064;-77
2022/11/06 00:18:40;;;;;;;4.15;3.28;;;10.50;83.00;;;;;;4882620;29;20033;-77
2022/11/06 00:21:12;;;;;;;6.53;3.40;;;10.40;83.00;;;;;;4882527;29;20147;-77
2022/11/06 00:23:38;;;;;;;7.55;3.53;;;10.40;83.10;;;;;;4900059;29;20040;-77
2022/11/06 00:26:12;;;;;;;6.28;3.08;;;10.50;83.20;;;;;;4882828;29;20032;-78
2022/11/06 00:28:38;;;;;;;7.22;3.70;;;10.50;83.20;;;;;;4882189;29;20075;-77
2022/11/06 00:31:10;;;;;;;6.78;3.45;;;10.50;83.10;;;;;;4882809;29;20048;-78
2022/11/06 00:33:40;;;;;;;4.85;3.10;;;10.60;83.10;;;;;;4880283;29;20485;-78
2022/11/06 00:36:11;;;;;;;8.40;3.83;;;10.60;82.90;;;;;;4883882;29;20032;-78
2022/11/06 00:38:37;;;;;;;7.55;3.42;;;10.60;82.90;;;;;;4902261;29;20029;-77
2022/11/06 00:41:05;;;;;;;5.97;3.35;;;10.70;82.80;;;;;;4883802;29;20485;-78
2022/11/06 00:43:32;;;;;;;4.65;3.20;;;10.70;82.70;;;;;;4883336;29;20028;-78
2022/11/06 00:46:02;;;;;;;7.97;3.42;;;10.70;82.70;;;;;;4882781;29;20036;-78
2022/11/06 00:48:28;;;;;;;5.65;2.75;;;10.70;82.70;;;;;;4898225;29;20071;-79
2022/11/06 00:50:54;;;;;;;6.60;3.50;;;10.70;82.70;;;;;;4898907;29;20433;-78
2022/11/06 00:53:19;;;;;;;6.75;3.15;;;10.70;82.70;;;;;;4881948;29;20033;-78
2022/11/06 00:55:45;;;;;;;6.70;3.30;;;10.70;82.70;;;;;;4881910;29;20091;-79
2022/11/06 00:58:11;;;;;;;5.53;3.00;;;10.70;82.70;;;;;;4881392;29;20036;-78
2022/11/06 01:00:38;;;;;;;4.68;2.60;;;10.70;82.70;;;;;;4898230;29;20396;-78
2022/11/06 01:03:03;;;;;;;5.72;3.08;;;10.70;82.70;;;;;;4881469;29;20124;-79
2022/11/06 01:05:29;;;;;;;6.00;2.60;;;10.70;82.70;;;;;;4881762;29;20060;-78
2022/11/06 01:07:55;;;;;;;5.47;2.88;;;10.70;82.70;;;;;;4881288;29;20053;-77
2022/11/06 01:10:20;;;;;;;3.85;2.53;;;10.70;82.70;;;;;;4880958;29;20499;-78
2022/11/06 01:12:46;;;;;;;5.22;2.75;;;10.70;82.80;;;;;;4897824;29;20048;-77
2022/11/06 01:15:12;;;;;;;4.90;2.70;;;10.70;82.80;;;;;;4881128;29;20040;-79
2022/11/06 01:17:37;;;;;;;6.97;2.47;;;10.70;82.80;;;;;;4881390;29;20033;-77
2022/11/06 01:20:03;;;;;;;5.50;2.83;;;10.70;82.80;;;;;;4881095;29;20028;-77
2022/11/06 01:22:29;;;;;;;3.25;2.40;;;10.70;82.80;;;;;;4898145;29;20477;-77
2022/11/06 01:24:54;;;;;;;4.45;2.47;;;10.70;82.80;;;;;;4880976;29;20024;-77
2022/11/06 01:27:20;;;;;;;4.13;2.95;;;10.70;82.80;;;;;;4881073;29;20580;-77
2022/11/06 01:29:46;;;;;;;4.82;2.40;;;10.70;82.70;;;;;;4881229;29;20540;-77
2022/11/06 01:32:11;;;;;;;5.75;2.65;;;10.70;82.70;;;;;;4881133;29;20040;-78
2022/11/06 01:34:37;;;;;;;5.70;2.60;;;10.70;82.70;;;;;;4897850;29;20497;-77
2022/11/06 01:37:03;;;;;;;4.38;2.28;;;10.70;82.70;;;;;;4881480;29;20032;-78
2022/11/06 01:39:30;;;;;;;7.28;2.40;;;10.80;82.80;;;;;;4895075;29;20057;-78
2022/11/06 01:41:56;;;;;;;4.40;2.35;;;10.80;82.70;;;;;;4883295;29;20033;-78
2022/11/06 01:44:39;;;;;;;5.40;2.65;;;10.80;82.60;;;;;;4883998;29;20032;-78
2022/11/06 01:47:28;;;;;;;3.85;2.10;;;10.80;82.60;;;;;;4883578;29;20030;-78
2022/11/06 01:49:57;;;;;;;4.32;1.90;;;10.80;82.60;;;;;;4882905;29;20035;-78
2022/11/06 01:52:26;;;;;;;4.55;2.25;;;10.80;83.10;;;;;;4882272;29;20044;-79
2022/11/06 01:54:56;;;;;;;5.07;2.13;;;10.80;82.50;;;;;;4882769;29;20060;-78
2022/11/06 01:57:22;;;;;;;4.60;2.13;;;10.80;82.40;;;;;;4881794;29;20457;-78
2022/11/06 01:59:53;;;;;;;3.45;2.08;;;10.80;82.40;;;;;;4897838;29;20127;-78
2022/11/06 02:02:22;;;;;;;3.15;2.42;;;10.80;82.40;;;;;;4898312;29;20059;-78
2022/11/06 02:04:48;;;;;;;4.50;2.10;;;10.80;82.50;;;;;;4901781;29;20056;-79
2022/11/06 02:07:16;;;;;;;5.03;2.30;;;10.80;82.50;;;;;;4917445;29;20128;-79
2022/11/06 02:09:42;;;;;;;5.30;2.47;;;10.70;82.40;;;;;;4901155;29;20112;-80
2022/11/06 02:12:43;;;;;;;5.10;2.10;;;10.70;82.50;;;;;;4900607;29;20036;-78
2022/11/06 02:15:26;;;;;;;4.15;1.98;;;10.70;82.60;;;;;;4900893;29;20041;-78
2022/11/06 02:18:18;;;;;;;3.23;2.23;;;10.70;82.60;;;;;;4900395;29;20040;-79
2022/11/06 02:21:18;;;;;;;3.97;2.00;;;10.70;83.20;;;;;;4900024;29;20300;-79
2022/11/06 02:24:15;;;;;;;4.65;1.65;;;10.70;82.60;;;;;;4900020;29;20048;-78
2022/11/06 02:27:11;;;;;;;5.43;2.10;;;10.70;82.50;;;;;;4898458;29;20118;-79
2022/11/06 02:30:02;;;;;;;7.03;2.00;;;10.70;82.50;;;;;;4899653;29;20056;-79
2022/11/06 02:32:38;;;;;;;4.43;2.10;;;10.70;82.50;;;;;;4916675;29;20020;-78
2022/11/06 02:35:18;;;;;;;4.50;2.20;;;10.80;82.50;;;;;;4917012;29;20025;-79
2022/11/06 02:37:45;;;;;;;2.85;1.95;;;10.70;82.40;;;;;;4900242;29;20032;-78
2022/11/06 02:40:13;;;;;;;8.20;2.15;;;10.80;82.40;;;;;;4898415;29;20067;-78
2022/11/06 02:42:43;;;;;;;3.30;2.00;;;10.80;82.40;;;;;;4897095;29;20040;-79
2022/11/06 02:45:11;;;;;;;3.92;1.75;;;10.80;83.00;;;;;;4915242;29;20056;-79
2022/11/06 02:47:38;;;;;;;5.03;2.00;;;10.80;82.50;;;;;;4917642;29;20028;-80
2022/11/06 02:50:12;;;;;;;5.15;2.13;;;10.80;82.40;;;;;;4917555;29;20085;-80
2022/11/06 02:52:46;;;;;;;2.78;1.88;;;10.80;82.50;;;;;;4908744;29;20485;-79
2022/11/06 02:55:25;;;;;;;4.32;2.10;;;10.80;82.40;;;;;;4879424;29;20024;-79
2022/11/06 02:57:56;;;;;;;3.42;1.80;;;10.70;82.30;;;;;;4896450;29;20092;-79
2022/11/06 03:00:23;;;;;;;4.32;2.03;;;10.80;82.70;;;;;;4896202;29;20044;-79
2022/11/06 03:02:49;;;;;;;5.10;2.40;;;10.70;82.40;;;;;;4896236;29;20053;-79
2022/11/06 03:05:23;;;;;;;6.07;2.10;;;10.70;82.40;;;;;;4896192;29;20068;-79
2022/11/06 03:08:16;;;;;;;4.03;2.20;;;10.70;82.40;;;;;;4879135;29;20117;-79
2022/11/06 03:11:04;;;;;;;5.25;2.35;;;10.70;82.40;;;;;;4879414;29;20037;-80
2022/11/06 03:13:42;;;;;;;3.95;2.00;;;10.70;82.40;;;;;;4882593;29;20044;-79
2022/11/06 03:16:22;;;;;;;7.10;2.17;;;10.70;82.40;;;;;;4899418;29;20111;-79
2022/11/06 03:19:06;;;;;;;9.75;2.20;;;10.70;82.50;;;;;;4899402;29;20519;-78
2022/11/06 03:22:07;;;;;;;5.15;2.00;;;10.70;82.40;;;;;;4882542;29;20032;-79
2022/11/06 03:24:54;;;;;;;6.28;2.10;;;10.80;82.40;;;;;;4899066;29;20393;-78
2022/11/06 03:27:27;;;;;;;4.05;1.90;;;10.80;82.40;;;;;;4882463;29;20029;-79
2022/11/06 03:30:06;;;;;;;2.80;1.70;;;10.80;82.40;;;;;;4882643;29;20032;-78
2022/11/06 03:32:59;;;;;;;4.35;1.90;;;10.80;82.40;;;;;;4882296;29;20072;-79
2022/11/06 03:35:42;;;;;;;5.27;1.80;;;10.80;82.40;;;;;;4882141;29;20036;-79
2022/11/06 03:38:22;;;;;;;5.00;1.83;;;10.80;82.40;;;;;;4882147;29;20888;-79
2022/11/06 03:40:52;;;;;;;2.80;1.77;;;10.80;82.40;;;;;;4881975;29;20032;-79
2022/11/06 03:43:22;;;;;;;4.75;1.85;;;10.80;82.40;;;;;;4882273;29;20052;-79
2022/11/06 03:45:51;;;;;;;3.47;1.58;;;10.80;82.40;;;;;;4881989;29;20059;-79
2022/11/06 03:48:31;;;;;;;4.40;1.90;;;10.80;82.40;;;;;;4881927;29;20164;-79
2022/11/06 03:51:09;;;;;;;4.50;1.90;;;10.80;82.40;;;;;;4881889;29;20032;-79
2022/11/06 03:53:43;;;;;;;4.38;1.77;;;10.80;82.40;;;;;;4898693;29;20033;-79
2022/11/06 03:56:14;;;;;;;4.25;1.80;;;10.90;82.50;;;;;;4881703;29;20112;-79
2022/11/06 03:58:45;;;;;;;2.22;1.80;;;10.80;82.30;;;;;;4898379;29;20122;-79
2022/11/06 04:01:13;;;;;;;5.03;1.80;;;10.80;82.30;;;;;;4881688;29;20436;-79
2022/11/06 04:04:05;;;;;;;3.10;1.70;;;10.90;82.40;;;;;;4898414;29;20036;-79
2022/11/06 04:06:41;;;;;;;5.38;1.98;;;10.90;82.40;;;;;;4881366;29;20107;-79
2022/11/06 04:14:46;;;;;;;5.72;1.70;;;10.90;82.40;;;;;;4898736;29;20166;-79
2022/11/06 04:17:14;;;;;;;6.00;1.70;;;10.90;82.40;;;;;;4881716;29;20500;-80
2022/11/06 04:19:50;;;;;;;5.40;1.70;;;10.90;82.40;;;;;;4881339;29;20393;-79
2022/11/06 04:22:31;;;;;;;4.15;1.70;;;10.90;82.40;;;;;;4881351;29;20028;-79
2022/11/06 04:29:02;;;;;;;6.68;1.70;;;10.90;82.40;;;;;;4898360;29;20051;-79
2022/11/06 04:31:59;;;;;;;4.85;1.67;;;10.90;82.30;;;;;;4821781;29;20033;-79
2022/11/06 04:34:42;;;;;;;4.68;1.60;;;10.90;82.40;;;;;;4819914;29;20039;-78
2022/11/06 04:37:24;;;;;;;3.30;1.77;;;10.90;82.40;;;;;;4865874;29;20072;-78
2022/11/06 04:40:18;;;;;;;2.83;1.52;;;10.90;82.30;;;;;;4897972;29;20064;-79
2022/11/06 04:42:59;;;;;;;5.35;1.80;;;11.00;82.40;;;;;;4881119;29;20036;-79
2022/11/06 04:45:48;;;;;;;4.40;1.55;;;11.00;82.30;;;;;;4897869;29;20029;-78
2022/11/06 04:48:16;;;;;;;6.65;1.60;;;11.00;82.40;;;;;;4897975;29;20029;-79
2022/11/06 04:50:47;;;;;;;5.22;2.03;;;11.00;82.40;;;;;;4880987;29;20047;-78
2022/11/06 04:53:14;;;;;;;7.38;1.67;;;11.00;82.40;;;;;;4880878;29;20507;-79
2022/11/06 04:55:55;;;;;;;4.60;1.75;;;11.00;82.30;;;;;;4897859;29;20072;-79
2022/11/06 04:58:20;;;;;;;5.25;1.52;;;11.10;82.40;;;;;;4880861;29;20037;-79
2022/11/06 05:00:49;;;;;;;5.28;1.65;;;11.10;82.40;;;;;;4880630;29;20027;-79
2022/11/06 05:03:15;;;;;;;5.75;1.83;;;11.00;82.30;;;;;;4897838;29;20132;-79
2022/11/06 05:05:42;;;;;;;5.45;1.65;;;11.00;82.30;;;;;;4897631;29;20084;-79
2022/11/06 05:08:17;;;;;;;5.20;1.75;;;11.00;82.30;;;;;;4880845;29;20044;-78
2022/11/06 05:10:44;;;;;;;4.43;1.48;;;11.10;82.40;;;;;;4880805;29;20080;-79
2022/11/06 05:13:10;;;;;;;4.40;1.40;;;11.00;82.40;;;;;;4897575;29;20033;-79
2022/11/06 05:15:35;;;;;;;4.65;1.63;;;11.00;82.50;;;;;;4880664;29;20088;-78
2022/11/06 05:18:02;;;;;;;4.60;1.50;;;10.90;82.50;;;;;;4897488;29;20037;-79
2022/11/06 05:20:28;;;;;;;5.03;1.80;;;10.90;82.60;;;;;;4897289;29;20033;-79
2022/11/06 05:22:59;;;;;;;5.65;1.70;;;10.90;82.70;;;;;;4880241;29;20021;-78
2022/11/06 05:25:34;;;;;;;3.50;1.70;;;10.90;82.70;;;;;;4897248;29;20029;-79
2022/11/06 05:28:00;;;;;;;4.57;1.70;;;10.90;82.70;;;;;;4880414;29;20059;-78
2022/11/06 05:30:26;;;;;;;4.07;1.60;;;10.90;82.70;;;;;;4897160;29;20036;-78
2022/11/06 05:32:52;;;;;;;4.18;1.83;;;11.00;82.80;;;;;;4879955;29;20099;-80
2022/11/06 05:35:19;;;;;;;3.55;1.65;;;11.00;82.70;;;;;;4896717;29;20453;-79
2022/11/06 05:37:45;;;;;;;6.95;1.65;;;11.00;82.70;;;;;;4897372;29;20495;-78
2022/11/06 05:40:11;;;;;;;4.55;1.58;;;11.00;82.70;;;;;;4896961;29;20044;-78
2022/11/06 05:42:38;;;;;;;3.45;1.58;;;11.00;82.70;;;;;;4897280;29;20052;-79
2022/11/06 05:45:05;;;;;;;4.65;1.60;;;11.00;82.60;;;;;;4880121;29;20100;-79
2022/11/06 05:47:31;;;;;;;4.88;1.55;;;11.10;82.70;;;;;;4880308;29;20035;-79
2022/11/06 05:49:56;;;;;;;3.72;1.42;;;11.00;82.60;;;;;;4897103;29;20100;-79
2022/11/06 05:52:22;;;;;;;5.90;1.73;;;11.00;82.60;;;;;;4880727;29;20032;-80
2022/11/06 05:54:48;;;;;;;9.55;1.88;;;11.10;82.70;;;;;;4881041;29;20092;-79
2022/11/06 05:57:13;;;;;;;5.50;1.80;;;11.00;82.70;;;;;;4879944;29;20023;-79
2022/11/06 05:59:39;;;;;;;4.22;1.55;;;11.10;82.70;;;;;;4880158;29;20066;-78
2022/11/06 06:02:04;;;;;;;3.88;1.60;;;11.10;82.70;;;;;;4880381;29;20059;-79
2022/11/06 06:04:30;;;;;;;2.55;1.30;;;11.00;82.70;;;;;;4896747;29;20084;-79
2022/11/06 06:06:55;;;;;;;4.20;1.33;;;11.10;82.70;;;;;;4879693;29;20143;-79
2022/11/06 06:09:21;;;;;;;5.18;1.88;;;11.00;82.70;;;;;;4896889;29;20483;-79
2022/11/06 06:11:51;;;;;;;5.78;1.30;;;11.10;82.70;;;;;;4879972;29;20047;-80
2022/11/06 06:14:17;;;;;;;4.68;1.52;;;11.10;82.70;;;;;;4896982;29;20516;-79
2022/11/06 06:16:43;;;;;;;5.18;1.40;;;11.10;82.70;;;;;;4896683;29;20424;-79
2022/11/06 06:19:08;;;;;;;2.58;1.60;;;11.10;82.70;;;;;;4879675;29;20025;-79
2022/11/06 06:21:35;;;;;;;4.38;1.48;;;11.10;82.70;;;;;;4879809;29;20028;-79
2022/11/06 06:24:01;;;;;;;3.28;1.50;;;11.10;82.70;;;;;;4896505;29;20078;-79
2022/11/06 06:26:26;;;;;;;4.55;1.45;;;11.10;82.70;;;;;;4879804;29;20059;-79
2022/11/06 06:28:52;;;;;;;6.88;1.90;;;11.10;82.70;;;;;;4879936;29;20035;-79
2022/11/06 06:31:18;;;;;;;4.05;1.35;;;11.10;82.70;;;;;;4896555;29;20052;-79
2022/11/06 06:33:43;;;;;;;3.58;1.40;;;11.10;82.70;;;;;;4879665;29;20024;-79
2022/11/06 06:36:09;;;;;;;2.88;1.30;;;11.10;82.70;;;;;;4896804;29;20555;-78
2022/11/06 06:38:35;;;;;;;4.07;1.17;;;11.10;82.80;;;;;;4896420;29;20032;-78
2022/11/06 06:41:07;;;;;;;5.40;1.75;;;11.10;82.80;;;;;;4879589;29;20123;-78
2022/11/06 06:43:33;;;;;;;3.50;1.55;;;11.10;82.90;;;;;;4896532;29;20441;-78
2022/11/06 06:46:01;;;;;;;3.60;1.48;;;11.10;82.90;;;;;;4879680;29;20029;-78
2022/11/06 06:48:27;;;;;;;5.32;1.60;;;11.10;82.90;;;;;;4883079;29;20039;-78
2022/11/06 06:50:56;;;;;;;4.57;1.95;;;11.10;82.80;;;;;;4883238;29;20397;-79
2022/11/06 06:53:22;;;;;;;5.65;1.70;;;11.10;82.80;;;;;;4883266;29;20092;-79
2022/11/06 06:55:47;;;;;;;4.57;1.30;;;11.10;82.80;;;;;;4883352;29;20029;-79
2022/11/06 06:58:16;;;;;;;3.85;1.65;;;11.10;82.90;;;;;;4899988;29;20441;-78
2022/11/06 07:00:41;;;;;;;6.80;1.95;;;11.10;82.90;;;;;;4883015;29;20100;-78
2022/11/06 07:03:08;;;;;;;6.40;1.63;;;11.10;82.90;;;;;;4882974;29;20029;-79
2022/11/06 07:05:33;;;;;;;4.20;1.40;;;11.10;82.90;;;;;;4900310;29;20063;-79
2022/11/06 07:07:59;;;;;;;4.50;1.40;;;11.10;82.80;;;;;;4883340;29;20079;-78
2022/11/06 07:10:24;;;;;;;2.42;1.35;;;11.10;82.70;;;;;;4883214;29;20029;-78
2022/11/06 07:12:50;;;;;;;3.10;1.50;;;11.20;82.70;;;;;;4883295;29;20031;-79
2022/11/06 07:15:16;;;;;;;3.70;1.48;;;11.20;82.80;;;;;;4882908;29;20127;-79
2022/11/06 07:17:41;;;;;;;3.22;1.60;;;11.20;82.70;;;;;;4882881;29;20492;-79
2022/11/06 07:20:08;;;;;;;5.35;1.33;;;11.20;82.60;;;;;;4883568;29;20036;-79
2022/11/06 07:22:34;;;;;;;6.85;1.38;;;11.20;82.60;;;;;;4883280;29;20508;-79
2022/11/06 07:24:59;;;;;;;4.65;1.67;;;11.20;82.50;;;;;;4883186;29;20036;-78
2022/11/06 07:27:25;;;;;;;3.83;1.30;;;11.30;82.60;;;;;;4883508;29;20032;-79
2022/11/06 07:29:51;;;;;;;3.15;1.30;;;11.30;82.50;;;;;;4884094;29;20036;-79
2022/11/06 07:32:16;;;;;;;3.08;1.25;;;11.30;82.40;;;;;;4900263;29;20063;-78
2022/11/06 07:34:42;;;;;;;5.60;1.40;;;11.30;82.40;;;;;;4900479;29;20060;-78
2022/11/06 07:37:11;;;;;;;4.25;1.42;;;11.40;82.40;;;;;;4884067;29;20401;-78
2022/11/06 07:39:36;;;;;;;7.07;1.65;;;11.40;82.40;;;;;;4899935;29;20392;-77
2022/11/06 07:42:02;;;;;;;3.88;1.50;;;11.50;82.30;;;;;;4900082;29;20116;-78
2022/11/06 07:44:28;;;;;;;2.72;1.40;;;11.50;82.30;;;;;;4874988;29;20029;-78
2022/11/06 07:46:53;;;;;;;3.33;1.50;;;11.60;82.10;;;;;;4882857;29;20043;-78
2022/11/06 07:49:19;;;;;;;6.13;1.50;;;11.60;82.00;;;;;;4879991;29;20044;-78
2022/11/06 07:51:45;;;;;;;6.30;2.05;;;11.60;82.00;;;;;;4882707;29;20044;-78
2022/11/06 07:54:11;;;;;;;3.47;1.60;;;11.60;82.00;;;;;;4884013;29;20033;-77
2022/11/06 07:56:37;;;;;;;4.47;1.45;;;11.70;82.00;;;;;;4882998;29;20548;-78
2022/11/06 07:59:03;;;;;;;4.25;1.90;;;11.70;81.90;;;;;;4882097;29;20029;-79
2022/11/06 08:01:28;;;;;;;4.00;1.75;;;11.70;81.90;;;;;;4882920;29;20036;-78
2022/11/06 08:03:54;;;;;;;5.88;2.60;;;11.70;81.80;;;;;;4882795;29;20033;-79
2022/11/06 08:06:20;;;;;;;6.78;2.42;;;11.70;81.80;;;;;;4899683;29;20025;-75
2022/11/06 08:08:46;;;;;;;5.22;1.85;;;11.70;81.70;;;;;;4898553;29;20049;-78
2022/11/06 08:11:12;;;;;;;4.75;1.67;;;11.70;81.70;;;;;;4881469;29;20035;-75
2022/11/06 08:13:38;;;;;;;4.28;2.17;;;11.80;81.70;;;;;;4898429;29;20052;-73
2022/11/06 08:16:08;;;;;;;4.40;1.80;;;11.80;81.60;;;;;;4898491;29;20052;-72
2022/11/06 08:18:34;;;;;;;4.85;1.80;;;11.80;81.60;;;;;;4898306;29;20112;-73
2022/11/06 08:21:00;;;;;;;3.25;1.48;;;11.90;81.50;;;;;;4881610;29;20488;-77
2022/11/06 08:23:26;;;;;;;3.28;1.80;;;11.90;81.40;;;;;;4895385;29;20082;-76
2022/11/06 08:25:54;;;;;;;3.38;2.20;;;12.00;81.40;;;;;;4881437;29;20504;-77
2022/11/06 08:28:20;;;;;;;4.82;1.70;;;12.00;81.20;;;;;;4898401;29;20037;-75
2022/11/06 08:30:45;;;;;;;4.32;1.60;;;12.10;81.20;;;;;;4895780;29;20093;-72
2022/11/06 08:33:11;;;;;;;3.00;1.38;;;12.10;81.10;;;;;;4898079;29;20401;-73
2022/11/06 08:35:37;;;;;;;4.93;1.60;;;12.20;81.00;;;;;;4898128;29;20032;-72
2022/11/06 08:38:03;;;;;;;3.40;1.67;;;12.20;80.90;;;;;;4881265;29;20519;-73
2022/11/06 08:40:30;;;;;;;3.25;1.45;;;12.30;80.80;;;;;;4881083;29;20543;-71
2022/11/06 08:43:04;;;;;;;2.95;1.27;;;12.30;80.80;;;;;;4898178;29;20080;-74
2022/11/06 08:45:30;;;;;;;3.30;1.38;;;12.30;80.50;;;;;;4881517;29;20032;-73
2022/11/06 08:48:01;;;;;;;3.97;1.40;;;12.40;80.60;;;;;;4895057;29;20528;-72
2022/11/06 08:50:26;;;;;;;3.88;1.23;;;12.40;80.50;;;;;;4878543;29;20042;-74
2022/11/06 08:52:55;;;;;;;2.88;1.30;;;12.40;80.50;;;;;;4881049;29;20037;-77
2022/11/06 08:55:21;;;;;;;4.40;1.40;;;12.40;80.40;;;;;;4898063;29;20040;-74
2022/11/06 08:57:47;;;;;;;3.67;1.35;;;12.40;80.40;;;;;;4899110;29;20088;-77
2022/11/06 09:00:15;;;;;;;4.35;1.92;;;12.50;80.30;;;;;;4880995;29;20028;-75
2022/11/06 09:02:42;;;;;;;3.53;1.35;;;12.50;80.30;;;;;;4897619;29;20040;-73
2022/11/06 09:05:07;;;;;;;3.88;1.20;;;12.50;80.30;;;;;;4880978;29;20388;-75
2022/11/06 09:07:33;;;;;;;4.75;1.40;;;12.50;80.20;;;;;;4897361;29;20036;-75
2022/11/06 09:09:59;;;;;;;2.55;1.30;;;12.50;80.10;;;;;;4896800;29;20080;-76
2022/11/06 09:12:25;;;;;;;3.20;1.27;;;12.50;80.10;;;;;;4894564;29;20088;-73
2022/11/06 09:14:50;;;;;;;2.58;1.20;;;12.50;80.10;;;;;;4897805;29;20041;-75
2022/11/06 09:17:22;;;;;;;4.78;1.23;;;12.50;80.10;;;;;;4881116;29;20119;-74
2022/11/06 09:19:48;;;;;;;3.28;1.10;;;12.50;80.10;;;;;;4881013;29;20037;-77
2022/11/06 09:22:14;;;;;;;4.70;1.50;;;12.50;80.20;;;;;;4897543;29;20378;-70
2022/11/06 09:24:39;;;;;;;2.80;1.10;;;12.50;80.10;;;;;;4898131;29;20091;-79
2022/11/06 09:27:06;;;;;;;4.25;1.30;;;12.50;80.00;;;;;;4901992;29;20485;-79
2022/11/06 09:29:31;;;;;;;2.15;1.20;;;12.50;79.90;;;;;;4883993;29;20048;-80
2022/11/06 09:31:57;;;;;;;6.85;1.63;;;12.50;79.90;;;;;;4880891;29;20024;-79
2022/11/06 09:34:22;;;;;;;3.25;1.38;;;12.60;80.00;;;;;;4880705;29;20041;-80
2022/11/06 09:36:48;;;;;;;4.55;2.33;;;12.70;80.00;;;;;;4880937;29;20036;-80
2022/11/06 09:39:14;;;;;;;2.22;1.25;;;12.70;79.90;;;;;;4880685;29;20032;-78
2022/11/06 09:41:57;;;;;;;3.83;1.20;;;12.80;80.00;;;;;;4880438;29;20559;-78
2022/11/06 09:45:01;;;;;;;3.53;1.35;;;12.80;80.60;;;;;;4880567;29;20031;-81
2022/11/06 09:47:31;;;;;;;2.33;1.27;;;12.90;80.30;;;;;;4880382;29;20024;-79
2022/11/06 09:50:00;;;;;;;2.92;1.33;;;13.00;80.10;;;;;;4880423;29;20062;-79
2022/11/06 09:52:45;;;;;;;2.40;1.27;;;13.00;80.10;;;;;;4880707;29;20036;-79
2022/11/06 09:55:16;;;;;;;4.53;1.55;;;13.00;79.90;;;;;;4897046;29;20040;-78
2022/11/06 09:57:55;;;;;;;3.92;1.42;;;13.10;80.00;;;;;;4880003;29;20064;-78
2022/11/06 10:00:21;;;;;;;4.38;1.30;;;13.10;79.90;;;;;;4879996;29;20492;-79
2022/11/06 10:03:04;;;;;;;4.10;1.13;;;13.10;79.80;;;;;;4896653;29;20032;-79
2022/11/06 10:05:36;;;;;;;1.47;0.87;;;13.20;80.20;;;;;;4896734;29;20060;-79
2022/11/06 10:08:18;;;;;;;3.70;1.23;;;13.20;80.00;;;;;;4879909;29;20044;-78
2022/11/06 10:11:02;;;;;;;2.30;1.10;;;13.40;79.90;;;;;;4896727;29;20556;-78
2022/11/06 10:13:59;;;;;;;2.92;1.20;;;13.30;79.70;;;;;;4897159;29;20064;-78
2022/11/06 10:17:05;;;;;;;2.50;1.10;;;13.40;79.70;;;;;;4880080;29;20033;-78
2022/11/06 10:19:45;;;;;;;4.32;1.10;;;13.40;79.70;;;;;;4820978;29;20189;-80
2022/11/06 10:22:40;;;;;;;7.18;1.40;;;13.50;79.50;;;;;;4874953;29;20405;-76
2022/11/06 10:25:16;;;;;;;2.30;1.23;;;13.50;79.50;;;;;;4885880;29;20088;-79
2022/11/06 10:28:04;;;;;;;3.15;1.10;;;13.60;79.80;;;;;;4884926;29;20048;-78
2022/11/06 10:30:53;;;;;;;2.67;1.17;;;13.60;79.70;;;;;;4884690;29;20032;-78
2022/11/06 10:33:33;;;;;;;2.80;1.25;;;13.60;79.40;;;;;;4890933;29;20512;-79
2022/11/06 10:36:31;;;;;;;3.58;1.20;;;13.50;79.30;;;;;;4883892;29;20039;-77
2022/11/06 10:38:58;;;;;;;3.63;1.10;;;13.60;79.60;;;;;;4874416;29;20040;-78
2022/11/06 10:41:32;;;;;;;5.25;1.40;;;13.60;79.90;;;;;;4883582;29;20084;-77
2022/11/06 10:43:58;;;;;;;4.38;1.52;;;13.60;80.10;;;;;;4901023;29;20052;-78
2022/11/06 10:46:39;;;;;;;3.20;1.55;;;13.60;80.10;;;;;;4900021;29;20537;-77
2022/11/06 10:49:33;;;;;;;2.78;1.27;;;13.60;79.80;;;;;;4899796;29;20043;-77
2022/11/06 10:52:16;;;;;;;3.58;1.50;;;13.70;79.80;;;;;;4883116;29;20040;-78
2022/11/06 10:55:19;;;;;;;1.77;1.20;;;13.70;79.80;;;;;;4883894;29;20044;-78
2022/11/06 10:57:57;;;;;;;2.20;1.30;;;13.80;80.00;;;;;;4899997;29;20032;-78
2022/11/06 11:00:22;;;;;;;4.13;1.27;;;13.80;79.80;;;;;;4899913;29;20427;-77
2022/11/06 11:03:00;;;;;;;2.92;1.20;;;13.80;79.90;;;;;;4883022;29;20028;-78
2022/11/06 11:05:39;;;;;;;2.85;1.20;;;13.80;79.60;;;;;;4900283;29;20028;-78
2022/11/06 11:08:06;;;;;;;2.30;1.10;;;13.80;79.70;;;;;;4899423;29;20041;-77
2022/11/06 11:10:36;;;;;;;3.20;1.20;;;13.80;79.90;;;;;;4899881;29;20044;-77
2022/11/06 11:13:04;;;;;;;1.65;0.90;;;13.80;79.90;;;;;;4900011;29;20043;-78
2022/11/06 11:15:42;;;;;;;4.75;1.50;;;13.80;80.50;;;;;;4882691;29;20042;-77
2022/11/06 11:18:11;;;;;;;3.13;1.35;;;13.80;80.30;;;;;;4882712;29;20024;-78
2022/11/06 11:20:44;;;;;;;5.43;1.20;;;13.90;80.30;;;;;;4899661;29;20037;-78
2022/11/06 11:23:25;;;;;;;5.68;1.30;;;13.90;80.70;;;;;;4882678;29;20552;-78
2022/11/06 11:25:53;;;;;;;3.40;1.30;;;13.80;80.60;;;;;;4882457;29;20025;-78
2022/11/06 11:28:29;;;;;;;4.22;1.20;;;13.80;80.30;;;;;;4882593;29;20120;-78
2022/11/06 11:31:06;;;;;;;2.22;1.20;;;13.80;80.60;;;;;;4899205;29;20455;-78
2022/11/06 11:33:32;;;;;;;4.22;1.58;;;13.80;80.00;;;;;;4881626;29;20044;-78
2022/11/06 11:35:58;;;;;;;3.38;1.40;;;13.80;80.00;;;;;;4899448;29;20024;-79
2022/11/06 11:38:25;;;;;;;2.58;1.20;;;13.80;80.00;;;;;;4899267;29;20045;-78
2022/11/06 11:41:03;;;;;;;8.57;2.85;;;13.90;80.00;;;;;;4882111;29;20040;-77
2022/11/06 11:43:29;;;;;;;4.90;2.00;;;13.90;79.60;;;;;;4882316;29;20040;-78
2022/11/06 11:46:07;;;;;;;3.28;1.38;;;13.90;79.20;;;;;;4882129;29;20033;-77
2022/11/06 11:48:42;;;;;;;3.85;1.50;;;14.00;78.70;;;;;;4898972;29;20037;-77
2022/11/06 11:51:31;;;;;;;3.45;1.60;;;14.00;78.80;;;;;;4898783;29;20033;-78
2022/11/06 11:54:12;;;;;;;3.60;1.23;;;14.10;78.60;;;;;;4882299;29;20128;-79
2022/11/06 11:56:53;;;;;;;3.33;1.25;;;14.10;78.60;;;;;;4882472;29;20402;-79
2022/11/06 11:59:30;;;;;;;4.25;1.27;;;14.10;78.30;;;;;;4899334;29;20040;-75
2022/11/06 12:02:11;;;;;;;2.80;0.93;;;14.10;77.50;;;;;;4896423;29;20131;-78
2022/11/06 12:04:42;;;;;;;3.00;1.27;;;14.10;78.40;;;;;;4896449;29;20568;-80
2022/11/06 12:07:29;;;;;;;4.20;1.15;;;14.10;78.50;;;;;;4880833;29;20273;-80
2022/11/06 12:09:57;;;;;;;3.17;1.20;;;14.10;78.40;;;;;;4896767;29;20409;-79
2022/11/06 12:12:29;;;;;;;3.05;1.17;;;14.10;78.10;;;;;;4896779;29;20089;-80
2022/11/06 12:15:18;;;;;;;4.33;1.27;;;14.20;78.30;;;;;;4896409;29;20101;-78
2022/11/06 12:17:51;;;;;;;2.97;1.08;;;14.20;77.60;;;;;;4896449;29;20032;-78
2022/11/06 12:20:23;;;;;;;1.55;0.80;;;14.10;77.90;;;;;;4894048;29;20048;-77
2022/11/06 12:22:51;;;;;;;3.22;1.20;;;14.10;78.90;;;;;;4896321;29;20136;-76
2022/11/06 12:25:41;;;;;;;1.70;1.02;;;14.10;79.40;;;;;;4895808;29;20186;-75
2022/11/06 12:28:16;;;;;;;5.32;1.15;;;14.10;78.80;;;;;;4870532;29;20080;-76
2022/11/06 12:30:51;;;;;;;3.10;1.00;;;14.00;78.40;;;;;;4895856;29;20136;-75
2022/11/06 12:33:20;;;;;;;2.97;1.05;;;14.00;78.30;;;;;;4896068;29;20387;-78
2022/11/06 12:35:57;;;;;;;3.53;0.90;;;14.00;78.90;;;;;;4897311;29;20051;-76
2022/11/06 12:38:30;;;;;;;2.28;1.20;;;14.00;78.30;;;;;;4881275;29;20035;-75
2022/11/06 12:41:15;;;;;;;2.97;0.98;;;14.00;77.50;;;;;;4881446;29;20041;-76
2022/11/06 12:43:49;;;;;;;4.00;1.25;;;13.90;77.20;;;;;;4881372;29;20143;-76
2022/11/06 12:47:06;;;;;;;2.60;1.02;;;13.90;77.00;;;;;;4881260;29;20029;-76
2022/11/06 12:49:47;;;;;;;2.83;0.90;;;13.90;77.10;;;;;;4850217;29;20040;-76
2022/11/06 12:52:21;;;;;;;6.50;2.67;;;13.90;77.30;;;;;;4881263;29;20039;-78
2022/11/06 12:55:07;;;;;;;6.72;2.10;;;13.90;77.00;;;;;;4898614;29;20492;-79
2022/11/06 12:58:03;;;;;;;4.22;2.00;;;13.90;76.70;;;;;;4898064;29;20039;-78
2022/11/06 13:00:33;;;;;;;5.28;1.58;;;14.00;76.30;;;;;;4898139;29;20060;-81
2022/11/06 13:03:33;;;;;;;2.88;1.38;;;14.00;76.10;;;;;;4881188;29;20044;-76
2022/11/06 13:06:06;;;;;;;3.85;1.50;;;14.00;76.00;;;;;;4897751;29;20493;-75
2022/11/06 13:09:01;;;;;;;3.35;1.20;;;14.00;75.90;;;;;;4880583;29;20052;-74
2022/11/06 13:11:32;;;;;;;4.55;1.48;;;13.90;76.10;;;;;;4880955;29;20040;-74
2022/11/06 13:14:12;;;;;;;2.67;1.10;;;13.90;76.10;;;;;;4880958;29;20450;-77
2022/11/06 13:17:07;;;;;;;2.28;1.00;;;14.00;76.00;;;;;;4897380;29;20048;-77
2022/11/06 13:19:56;;;;;;;5.60;1.48;;;14.00;75.90;;;;;;4897599;29;20447;-76
2022/11/06 13:22:41;;;;;;;2.67;1.15;;;14.00;77.30;;;;;;4880375;29;20397;-77
2022/11/06 13:25:40;;;;;;;3.83;1.10;;;14.00;77.10;;;;;;4897273;29;20456;-77
2022/11/06 13:28:15;;;;;;;3.90;1.10;;;14.00;76.90;;;;;;4852472;29;20083;-77